NCAR-RAP Real-Time Weather Data

Output produced by METARs form (08 May 2021  16:30 UTC)
found at http://weather.rap.ucar.edu/surface/
 
KJAN 081554Z 19009KT 10SM FEW150 24/10 A3013 RMK AO2 SLP198 T02390100
KJAN 081454Z 17010KT 10SM SCT150 22/09 A3013 RMK AO2 SLP199 T02170094 51005
KJAN 081354Z 17007KT 10SM SCT150 19/08 A3013 RMK AO2 SLP199 T01940083
KJAN 081254Z 15004KT 10SM SCT150 16/08 A3012 RMK AO2 SLP197 T01560083
KJAN 081154Z 15006KT 10SM SCT150 14/08 A3011 RMK AO2 SLP194 T01390078 10156 20111 53012
KJAN 081054Z 14005KT 10SM SCT150 13/08 A3009 RMK AO2 SLP186 T01330078
KJAN 080954Z AUTO 16005KT 10SM CLR 13/07 A3010 RMK AO2 SLP188 T01330072
KJAN 080854Z AUTO 15003KT 10SM CLR 12/08 A3008 RMK AO2 SLP182 T01170083 50001
KJAN 080754Z AUTO 00000KT 10SM CLR 12/08 A3010 RMK AO2 SLP190 T01170078
KJAN 080654Z AUTO 00000KT 10SM CLR 13/07 A3009 RMK AO2 SLP187 T01330072
KJAN 080554Z AUTO 17003KT 10SM CLR 14/07 A3007 RMK AO2 SLP180 T01440067 10228 20122 402560111 58014
KJAN 080454Z AUTO 00000KT 10SM CLR 13/09 A3011 RMK AO2 SLP193 T01330089
KJAN 080354Z 00000KT 10SM CLR 14/08 A3012 RMK AO2 SLP197 T01440083
KJAN 080254Z 00000KT 10SM CLR 14/09 A3011 RMK AO2 SLP195 T01440094 53007
KJAN 080154Z 00000KT 10SM CLR 16/08 A3009 RMK AO2 SLP187 T01610083
KJAN 080054Z 00000KT 10SM CLR 18/09 A3009 RMK AO2 SLP186 T01830089
KJAN 072354Z 36004KT 10SM CLR 23/04 A3009 RMK AO2 SLP187 T02280044 10256 20222 56014
KJAN 072254Z 34005KT 10SM CLR 24/02 A3011 RMK AO2 SLP191 T02440017
KJAN 072154Z 36008KT 10SM CLR 25/05 A3011 RMK AO2 SLP194 T02500050
KJAN 072054Z 27005KT 10SM CLR 25/05 A3013 RMK AO2 SLP201 T02500050 56022
KJAN 071954Z 33006KT 10SM CLR 24/08 A3015 RMK AO2 SLP208 T02440078
KJAN 071854Z 00000KT 10SM CLR 23/09 A3018 RMK AO2 SLP215 T02330094
KJAN 071754Z 36006KT 10SM CLR 22/09 A3020 RMK AO2 SLP223 T02220089 10222 20150 58006
KJAN 071654Z VRB05KT 10SM CLR 21/08 A3022 RMK AO2 SLP232 T02110083
KJAN 071554Z 35009KT 10SM CLR 21/08 A3023 RMK AO2 SLP232 T02060083
KJAN 071454Z 03009KT 10SM CLR 19/08 A3021 RMK AO2 SLP229 T01940083 51019
KJAN 071354Z 02010KT 10SM CLR 18/10 A3021 RMK AO2 SLP227 T01780100
KJAN 071254Z 02014KT 10SM CLR 16/11 A3019 RMK AO2 SLP220 T01610106
KJAN 071154Z 36009KT 10SM CLR 15/11 A3016 RMK AO2 SLP209 T01500106 10156 20111 53020
KJAN 071054Z 01006KT 10SM CLR 14/09 A3013 RMK AO2 SLP199 T01390094
KJAN 070954Z AUTO 00000KT 10SM CLR 12/10 A3012 RMK AO2 SLP198 T01220100
KJAN 070854Z AUTO 00000KT 10SM CLR 13/09 A3010 RMK AO2 SLP189 T01280094 55001
KJAN 070754Z AUTO 00000KT 10SM CLR 13/10 A3010 RMK AO2 SLP189 T01280100
KJAN 070654Z AUTO 00000KT 10SM CLR 14/11 A3009 RMK AO2 SLP187 T01390106
KJAN 070554Z AUTO 00000KT 10SM CLR 16/11 A3010 RMK AO2 SLP190 T01560106 10244 20144 402670122 58003
KJAN 070454Z AUTO 00000KT 10SM CLR 17/11 A3011 RMK AO2 SLP192 T01670106
KJAN 070354Z 00000KT 10SM CLR 15/11 A3011 RMK AO2 SLP193 T01500111
KJAN 070254Z 13003KT 10SM CLR 16/11 A3011 RMK AO2 SLP193 T01560111 53006
KJAN 070154Z 00000KT 10SM CLR 17/11 A3010 RMK AO2 SLP190 T01670106
KJAN 070054Z 00000KT 10SM CLR 19/11 A3009 RMK AO2 SLP188 T01940106
KJAN 062354Z 30005KT 10SM CLR 24/08 A3009 RMK AO2 SLP187 T02440083 10267 20228 55006
KJAN 062254Z 32007KT 10SM CLR 26/08 A3009 RMK AO2 SLP186 T02560078
KJAN 062154Z VRB06KT 10SM CLR 27/08 A3009 RMK AO2 SLP188 T02670083
KJAN 062054Z 02011KT 10SM CLR 26/08 A3011 RMK AO2 SLP193 T02610083 58020
KJAN 061954Z 01008KT 330V060 10SM CLR 25/08 A3014 RMK AO2 SLP202 T02500083
KJAN 061854Z 33005KT 10SM CLR 24/09 A3015 RMK AO2 SLP208 T02390089
KJAN 061754Z 02008KT 10SM CLR 23/09 A3017 RMK AO2 SLP213 T02330089 10233 20139 58009
KJAN 061654Z 01011G17KT 10SM CLR 22/08 A3019 RMK AO2 SLP219 T02220083